This is the latest recevied weather packets stored in our database for station/object N8GD. If no packets are shown the sender has not sent any weather packets the latest 1 day(s).
| Time | Temp. | Humidity | Pressure | Rain* | Wind** | Luminosity | Snow |
|---|---|---|---|---|---|---|---|
| 1778010763 | 21.11° C | 58% | 1007.4 hPa | 0 mm | 4.02 m/s, 240° | - | - |
| 1778010708 | 21.11° C | 58% | 1007.4 hPa | 0 mm | 4.02 m/s, 240° | - | - |
| 1778009863 | 21.67° C | 58% | 1007.5 hPa | 0 mm | 4.92 m/s, 241° | - | - |
| 1778008963 | 21.67° C | 57% | 1007.5 hPa | 0 mm | 5.36 m/s, 256° | - | - |
| 1778008062 | 21.67° C | 54% | 1007.6 hPa | 0 mm | 3.58 m/s, 247° | - | - |
| 1778007163 | 22.22° C | 54% | 1007.6 hPa | 0 mm | 1.79 m/s, 265° | - | - |
| 1778006262 | 22.22° C | 54% | 1007.9 hPa | 0 mm | 2.68 m/s, 247° | - | - |
| 1778005364 | 21.67° C | 55% | 1007.9 hPa | 0 mm | 2.24 m/s, 204° | - | - |
| 1778005305 | 21.67° C | 54% | 1007.9 hPa | 0 mm | 2.24 m/s, 207° | - | - |
| 1778004463 | 21.67° C | 54% | 1007.8 hPa | 0 mm | 4.92 m/s, 249° | - | - |
| 1778003564 | 21.11° C | 58% | 1007.8 hPa | 0 mm | 2.68 m/s, 238° | - | - |
| 1778003505 | 21.11° C | 58% | 1007.8 hPa | 0 mm | 2.68 m/s, 238° | - | - |
| 1778002662 | 21.67° C | 55% | 1008 hPa | 0 mm | 4.92 m/s, 206° | - | - |
| 1778001762 | 21.11° C | 59% | 1008.1 hPa | 0 mm | 1.79 m/s, 215° | - | - |
| 1778001706 | 21.11° C | 57% | 1008.1 hPa | 0 mm | 1.34 m/s, 232° | - | - |
| 1778000863 | 20° C | 60% | 1008.1 hPa | 0 mm | 2.68 m/s, 260° | - | - |
| 1777999962 | 20° C | 61% | 1007.9 hPa | 0 mm | 2.24 m/s, 270° | - | - |
| 1777999901 | 20° C | 61% | 1007.9 hPa | 0 mm | 2.24 m/s, 270° | - | - |
| 1777999063 | 19.44° C | 58% | 1008.1 hPa | 0 mm | 2.24 m/s, 227° | - | - |
| 1777998163 | 20° C | 58% | 1007.6 hPa | 0 mm | 2.68 m/s, 232° | - | - |
| 1777997264 | 21.11° C | 56% | 1007.7 hPa | 0 mm | 2.24 m/s, 190° | - | - |
| 1777996363 | 21.11° C | 57% | 1007.8 hPa | 0 mm | 4.92 m/s, 294° | - | - |
| 1777995463 | 20.56° C | 60% | 1007.9 hPa | 0 mm | 1.34 m/s, 241° | - | - |
| 1777994562 | 20.56° C | 59% | 1008.1 hPa | 0 mm | 4.02 m/s, 233° | - | - |
| 1777993663 | 20.56° C | 60% | 1007.6 hPa | 0 mm | 1.79 m/s, 229° | - | - |
* Rain latest hour (hover to see other rain measurements)
** Current wind speed in m/s (hover to see current wind gust speed)